Time;durP1;ratioP1;P1;durP2;ratioP2;P2;SDS_P1;SDS_P2;PMS_P1;PMS_P2;Temp;Humidity;BMP_temperature;BMP_pressure;BME280_temperature;BME280_humidity;BME280_pressure;Samples;Min_cycle;Max_cycle;Signal;HPM_P1;HPM_P2
2023/06/01 00:01:52;;;;;;;9.30;2.10;;;13.70;99.90;;;;;;5107150;27;20123;-81
2023/06/01 00:04:18;;;;;;;3.28;2.00;;;13.70;99.90;;;;;;5112553;27;20028;-81
2023/06/01 00:06:43;;;;;;;7.72;2.47;;;13.70;99.90;;;;;;5094254;27;20058;-81
2023/06/01 00:09:09;;;;;;;3.75;2.67;;;13.60;99.90;;;;;;5102520;27;20027;-81
2023/06/01 00:11:35;;;;;;;4.32;1.88;;;13.60;99.90;;;;;;5109095;27;20442;-81
2023/06/01 00:14:01;;;;;;;6.47;2.45;;;13.60;99.90;;;;;;5110803;27;20057;-81
2023/06/01 00:16:27;;;;;;;4.03;2.28;;;13.60;99.90;;;;;;5122269;27;20412;-81
2023/06/01 00:18:55;;;;;;;6.45;1.90;;;13.60;99.90;;;;;;5110657;27;20032;-81
2023/06/01 00:21:21;;;;;;;6.78;2.60;;;13.50;99.90;;;;;;5116738;27;20030;-81
2023/06/01 00:23:47;;;;;;;4.28;1.80;;;13.50;99.90;;;;;;5112177;27;20024;-82
2023/06/01 00:26:13;;;;;;;4.28;2.03;;;13.50;99.90;;;;;;5118179;27;20105;-81
2023/06/01 00:28:39;;;;;;;7.82;2.13;;;13.50;99.90;;;;;;5110860;27;20563;-81
2023/06/01 00:31:04;;;;;;;3.53;2.10;;;13.50;99.90;;;;;;5117658;27;20152;-81
2023/06/01 00:33:30;;;;;;;3.28;1.85;;;13.50;99.90;;;;;;5113834;27;20031;-81
2023/06/01 00:35:56;;;;;;;2.53;2.03;;;13.50;99.90;;;;;;5117758;27;20035;-81
2023/06/01 00:38:22;;;;;;;8.68;2.80;;;13.50;99.90;;;;;;5121279;27;20111;-81
2023/06/01 00:40:51;;;;;;;6.28;2.40;;;13.50;99.90;;;;;;5121592;27;20488;-81
2023/06/01 00:43:17;;;;;;;5.57;2.42;;;13.50;99.90;;;;;;5118467;27;20023;-81
2023/06/01 00:45:43;;;;;;;3.08;1.88;;;13.40;99.90;;;;;;5116897;27;20108;-81
2023/06/01 00:48:10;;;;;;;9.07;2.10;;;13.40;99.90;;;;;;5120074;27;20067;-82
2023/06/01 00:50:36;;;;;;;6.97;2.45;;;13.30;99.90;;;;;;5116136;27;20107;-81
2023/06/01 00:53:04;;;;;;;2.85;2.10;;;13.30;99.90;;;;;;5120994;27;20169;-81
2023/06/01 00:55:30;;;;;;;7.65;2.45;;;13.20;99.90;;;;;;5113103;27;20116;-81
2023/06/01 00:57:57;;;;;;;4.43;2.65;;;13.20;99.90;;;;;;5115530;27;20172;-81
2023/06/01 01:00:24;;;;;;;5.95;2.70;;;13.10;99.90;;;;;;5117032;27;20023;-82
2023/06/01 01:02:51;;;;;;;5.32;2.10;;;13.00;99.90;;;;;;5121691;27;20042;-81
2023/06/01 01:05:17;;;;;;;6.97;2.83;;;12.90;99.90;;;;;;5114854;27;20519;-81
2023/06/01 01:08:06;;;;;;;8.38;2.03;;;12.90;99.90;;;;;;5119162;27;20039;-81
2023/06/01 01:10:41;;;;;;;10.35;2.78;;;12.80;99.90;;;;;;5121591;27;20381;-81
2023/06/01 01:13:14;;;;;;;10.87;2.53;;;12.80;99.90;;;;;;5115186;27;20140;-81
2023/06/01 01:15:46;;;;;;;12.05;2.92;;;12.70;99.90;;;;;;5113390;27;20392;-81
2023/06/01 01:18:19;;;;;;;7.10;2.90;;;12.70;99.90;;;;;;5106103;27;20389;-81
2023/06/01 01:20:51;;;;;;;9.18;3.08;;;12.70;99.90;;;;;;5111732;27;20024;-81
2023/06/01 01:23:45;;;;;;;9.90;3.15;;;12.70;99.90;;;;;;5113710;27;20027;-81
2023/06/01 01:26:19;;;;;;;32.05;4.20;;;12.80;99.90;;;;;;5117205;27;20048;-81
2023/06/01 01:28:50;;;;;;;7.23;4.30;;;12.90;99.90;;;;;;5109064;27;20032;-81
2023/06/01 01:31:18;;;;;;;15.63;3.80;;;13.10;99.90;;;;;;5095359;27;20293;-81
2023/06/01 01:33:46;;;;;;;9.93;4.00;;;13.10;99.90;;;;;;5109699;27;20027;-81
2023/06/01 01:36:12;;;;;;;5.95;3.28;;;13.20;99.90;;;;;;5115124;27;20152;-81
2023/06/01 01:38:39;;;;;;;10.45;4.15;;;13.20;99.90;;;;;;5112772;27;20464;-81
2023/06/01 01:41:05;;;;;;;6.93;3.78;;;13.30;99.90;;;;;;5110361;27;20055;-81
2023/06/01 01:43:31;;;;;;;11.10;4.28;;;13.30;99.90;;;;;;5119893;27;20077;-81
2023/06/01 01:46:09;;;;;;;13.95;4.60;;;13.30;99.90;;;;;;5123001;27;20028;-81
2023/06/01 01:48:49;;;;;;;11.32;4.35;;;13.20;99.90;;;;;;5120924;27;20042;-82
2023/06/01 01:51:20;;;;;;;8.05;3.88;;;13.20;99.90;;;;;;5114213;27;20035;-81
2023/06/01 01:53:48;;;;;;;23.80;4.90;;;13.20;99.90;;;;;;5111281;27;20024;-81
2023/06/01 01:56:15;;;;;;;18.33;5.10;;;13.20;99.90;;;;;;5119463;27;20032;-82
2023/06/01 01:58:42;;;;;;;13.25;4.22;;;13.20;99.90;;;;;;5124421;27;20034;-81
2023/06/01 02:01:08;;;;;;;11.68;4.40;;;13.20;99.90;;;;;;5119130;27;20586;-81
2023/06/01 02:03:34;;;;;;;9.90;4.47;;;13.10;99.90;;;;;;5101528;27;20027;-80
2023/06/01 02:06:02;;;;;;;7.85;4.47;;;13.00;99.90;;;;;;5111171;27;20054;-81
2023/06/01 02:08:28;;;;;;;6.82;3.80;;;13.00;99.90;;;;;;5109068;27;20040;-81
2023/06/01 02:10:53;;;;;;;8.90;3.83;;;12.90;99.90;;;;;;5117812;27;20027;-81
2023/06/01 02:13:19;;;;;;;12.50;4.60;;;12.90;99.90;;;;;;5101300;27;20047;-81
2023/06/01 02:15:45;;;;;;;7.45;3.53;;;12.80;99.90;;;;;;5115321;27;20024;-81
2023/06/01 02:18:11;;;;;;;9.40;4.00;;;12.70;99.90;;;;;;5113943;27;20032;-80
2023/06/01 02:20:36;;;;;;;7.78;4.05;;;12.60;99.90;;;;;;5103239;27;20066;-82
2023/06/01 02:23:02;;;;;;;12.27;5.00;;;12.50;99.90;;;;;;5109013;27;20036;-81
2023/06/01 02:25:27;;;;;;;10.32;3.95;;;12.40;99.90;;;;;;5109797;27;20055;-81
2023/06/01 02:27:54;;;;;;;7.72;4.10;;;12.30;99.90;;;;;;5118726;27;20050;-81
2023/06/01 02:30:19;;;;;;;7.38;3.42;;;12.30;99.90;;;;;;5111366;27;20446;-81
2023/06/01 02:32:48;;;;;;;8.73;3.50;;;12.20;99.90;;;;;;5113777;27;20022;-81
2023/06/01 02:35:14;;;;;;;9.32;3.40;;;12.20;99.90;;;;;;5113291;27;20047;-82
2023/06/01 02:37:40;;;;;;;5.72;3.25;;;12.10;99.90;;;;;;5111051;27;20373;-81
2023/06/01 02:40:10;;;;;;;6.13;3.50;;;12.10;99.90;;;;;;5115516;27;20028;-81
2023/06/01 02:42:37;;;;;;;6.97;3.25;;;12.10;99.90;;;;;;5111575;28;20035;-82
2023/06/01 02:45:04;;;;;;;5.07;3.10;;;12.00;99.90;;;;;;5101520;28;20027;-82
2023/06/01 02:47:29;;;;;;;4.13;3.13;;;11.90;99.90;;;;;;5114190;28;20134;-81
2023/06/01 02:49:55;;;;;;;7.93;3.55;;;11.90;99.90;;;;;;5106148;28;20542;-81
2023/06/01 02:52:20;;;;;;;8.57;3.72;;;11.80;99.90;;;;;;5120409;28;20051;-81
2023/06/01 02:54:46;;;;;;;8.32;3.95;;;11.80;99.90;;;;;;5108564;28;20020;-81
2023/06/01 02:57:11;;;;;;;8.52;3.80;;;11.70;99.90;;;;;;5112246;28;20051;-81
2023/06/01 02:59:37;;;;;;;10.02;4.07;;;11.70;99.90;;;;;;5108592;28;20034;-81
2023/06/01 03:02:02;;;;;;;8.65;4.13;;;11.60;99.90;;;;;;5101606;28;20031;-81
2023/06/01 03:04:28;;;;;;;8.07;3.80;;;11.50;99.90;;;;;;5109112;28;20283;-81
2023/06/01 03:06:54;;;;;;;7.20;3.42;;;11.50;99.90;;;;;;5119235;28;20039;-81
2023/06/01 03:09:19;;;;;;;9.43;3.70;;;11.40;99.90;;;;;;5105765;28;20460;-81
2023/06/01 03:11:45;;;;;;;7.72;3.15;;;11.40;99.90;;;;;;5109853;28;20030;-82
2023/06/01 03:14:11;;;;;;;9.93;3.42;;;11.40;99.90;;;;;;5098112;28;20043;-82
2023/06/01 03:16:36;;;;;;;7.43;3.35;;;11.40;99.90;;;;;;5110383;28;20551;-81
2023/06/01 03:19:02;;;;;;;5.00;2.90;;;11.40;99.90;;;;;;5103010;28;20143;-81
2023/06/01 03:21:27;;;;;;;7.18;3.50;;;11.40;99.90;;;;;;5103713;27;20024;-82
2023/06/01 03:23:53;;;;;;;10.15;4.38;;;11.40;99.90;;;;;;5113044;27;20495;-81
2023/06/01 03:26:20;;;;;;;6.03;3.13;;;11.30;99.90;;;;;;5112699;27;20070;-81
2023/06/01 03:28:46;;;;;;;5.35;3.20;;;11.30;99.90;;;;;;5116339;27;20080;-81
2023/06/01 03:31:12;;;;;;;8.57;3.20;;;11.20;99.90;;;;;;5112467;27;20382;-81
2023/06/01 03:33:38;;;;;;;6.30;3.97;;;11.20;99.90;;;;;;5115620;27;20031;-82
2023/06/01 03:36:04;;;;;;;11.13;3.63;;;11.10;99.90;;;;;;5108647;27;20043;-81
2023/06/01 03:38:30;;;;;;;9.82;4.45;;;11.10;99.90;;;;;;5112478;27;20028;-83
2023/06/01 03:40:56;;;;;;;11.88;4.68;;;11.00;99.90;;;;;;5112486;27;20029;-81
2023/06/01 03:43:21;;;;;;;22.60;9.15;;;11.00;99.90;;;;;;5122022;27;20031;-81
2023/06/01 03:45:47;;;;;;;15.20;7.15;;;11.10;99.90;;;;;;5108149;27;20031;-81
2023/06/01 03:48:12;;;;;;;22.33;11.82;;;11.20;99.90;;;;;;5110140;27;20047;-81
2023/06/01 03:50:38;;;;;;;29.17;13.43;;;11.20;99.90;;;;;;5104143;27;20031;-81
2023/06/01 03:53:04;;;;;;;37.70;14.55;;;11.30;99.90;;;;;;5108535;27;20058;-81
2023/06/01 03:55:30;;;;;;;28.83;16.33;;;11.40;99.90;;;;;;5110314;27;20118;-81
2023/06/01 03:57:56;;;;;;;33.35;16.60;;;11.50;99.90;;;;;;5119372;27;20111;-81
2023/06/01 04:00:22;;;;;;;38.42;19.02;;;11.50;99.90;;;;;;5119457;27;20019;-81
2023/06/01 04:03:01;;;;;;;28.17;16.27;;;11.50;99.90;;;;;;5097088;27;20139;-81
2023/06/01 04:05:27;;;;;;;26.27;15.98;;;11.50;99.90;;;;;;5113486;27;20043;-81
2023/06/01 04:07:54;;;;;;;29.33;16.08;;;11.50;99.90;;;;;;5110262;27;20156;-81
2023/06/01 04:10:21;;;;;;;33.40;16.60;;;11.50;99.90;;;;;;5095987;27;20080;-81
2023/06/01 04:12:48;;;;;;;38.45;18.73;;;11.50;99.90;;;;;;5114881;27;20028;-81
2023/06/01 04:15:16;;;;;;;28.25;16.95;;;11.50;99.90;;;;;;5107673;27;20024;-81
2023/06/01 04:17:43;;;;;;;28.48;15.35;;;11.50;99.90;;;;;;5113244;27;20372;-82
2023/06/01 04:20:14;;;;;;;36.53;16.38;;;11.50;99.90;;;;;;5107002;27;20066;-81
2023/06/01 04:22:41;;;;;;;35.88;18.08;;;11.50;99.90;;;;;;5109465;27;20032;-81
2023/06/01 04:25:08;;;;;;;41.70;21.88;;;11.40;99.90;;;;;;5117751;27;20081;-80
2023/06/01 04:27:39;;;;;;;37.78;20.38;;;11.40;99.90;;;;;;5112617;27;20497;-80
2023/06/01 04:30:07;;;;;;;36.22;20.95;;;11.40;99.90;;;;;;5111358;27;20036;-81
2023/06/01 04:32:39;;;;;;;45.47;24.20;;;11.40;99.90;;;;;;5113331;27;20032;-80
2023/06/01 04:35:07;;;;;;;39.20;22.40;;;11.40;99.90;;;;;;5116911;27;20020;-80
2023/06/01 04:37:40;;;;;;;31.27;18.38;;;11.40;99.90;;;;;;5100840;27;20019;-81
2023/06/01 04:40:07;;;;;;;45.70;22.77;;;11.40;99.90;;;;;;5112991;27;20043;-80
2023/06/01 04:42:34;;;;;;;41.35;24.05;;;11.50;99.90;;;;;;5107345;27;20360;-80
2023/06/01 04:45:07;;;;;;;54.63;27.52;;;11.50;99.90;;;;;;5115736;27;20027;-81
2023/06/01 04:47:37;;;;;;;32.28;21.00;;;11.40;99.90;;;;;;5107109;27;20039;-81
2023/06/01 04:50:05;;;;;;;45.30;25.13;;;11.40;99.90;;;;;;5103462;27;20412;-80
2023/06/01 04:52:30;;;;;;;42.33;22.70;;;11.40;99.90;;;;;;5100337;27;20031;-80
2023/06/01 04:54:56;;;;;;;41.97;23.92;;;11.30;99.90;;;;;;5111127;27;20469;-81
2023/06/01 04:57:23;;;;;;;43.15;22.70;;;11.30;99.90;;;;;;5118627;27;20028;-81
2023/06/01 04:59:50;;;;;;;38.13;23.10;;;11.30;99.90;;;;;;5112567;27;20199;-80
2023/06/01 05:02:15;;;;;;;47.33;25.83;;;11.30;99.90;;;;;;5102810;27;20081;-81
2023/06/01 05:04:41;;;;;;;52.15;25.67;;;11.30;99.90;;;;;;5116380;27;20495;-80
2023/06/01 05:07:07;;;;;;;43.55;24.88;;;11.30;99.90;;;;;;5126286;27;20146;-80
2023/06/01 05:09:33;;;;;;;47.20;23.88;;;11.30;99.90;;;;;;5104763;27;20479;-80
2023/06/01 05:11:58;;;;;;;39.95;21.73;;;11.20;99.90;;;;;;5109107;28;20027;-80
2023/06/01 05:14:24;;;;;;;52.20;24.42;;;11.20;99.90;;;;;;5106355;27;20026;-80
2023/06/01 05:16:49;;;;;;;47.72;22.65;;;11.10;99.90;;;;;;5112776;27;20077;-81
2023/06/01 05:19:15;;;;;;;38.40;20.60;;;11.10;99.90;;;;;;5110913;27;20050;-80
2023/06/01 05:21:43;;;;;;;35.17;22.50;;;11.10;99.90;;;;;;5112979;27;20457;-81
2023/06/01 05:24:09;;;;;;;39.20;22.40;;;11.10;99.90;;;;;;5109105;27;20063;-80
2023/06/01 05:26:35;;;;;;;55.78;25.55;;;11.10;99.90;;;;;;5107531;27;20039;-79
2023/06/01 05:29:00;;;;;;;38.00;22.70;;;11.10;99.90;;;;;;5107422;27;20176;-81
2023/06/01 05:31:26;;;;;;;38.58;21.92;;;11.10;99.90;;;;;;5118380;27;20024;-81
2023/06/01 05:33:52;;;;;;;43.33;21.63;;;11.10;99.90;;;;;;5108132;27;20034;-81
2023/06/01 05:36:17;;;;;;;42.08;23.65;;;11.10;99.90;;;;;;5117787;27;20046;-80
2023/06/01 05:38:44;;;;;;;42.33;22.80;;;11.10;99.90;;;;;;5098573;27;20056;-80
2023/06/01 05:41:09;;;;;;;44.33;22.63;;;11.10;99.90;;;;;;5109419;27;20107;-81
2023/06/01 05:43:36;;;;;;;41.80;22.05;;;11.10;99.90;;;;;;5106291;28;20495;-81
2023/06/01 05:46:02;;;;;;;35.92;21.67;;;11.10;99.90;;;;;;5112137;27;20019;-81
2023/06/01 05:48:28;;;;;;;47.80;20.58;;;11.20;99.90;;;;;;5112422;27;20035;-81
2023/06/01 05:50:54;;;;;;;39.22;20.13;;;11.20;99.90;;;;;;5116087;27;20035;-81
2023/06/01 05:53:19;;;;;;;55.58;22.08;;;11.20;99.90;;;;;;5103075;27;20031;-81
2023/06/01 05:55:45;;;;;;;38.90;20.40;;;11.20;99.90;;;;;;5115461;27;20038;-81
2023/06/01 05:58:10;;;;;;;37.88;21.38;;;11.20;99.90;;;;;;5115799;27;20030;-81
2023/06/01 06:00:36;;;;;;;37.22;17.42;;;11.10;99.90;;;;;;5111264;27;20490;-81
2023/06/01 06:03:04;;;;;;;36.28;20.58;;;11.00;99.90;;;;;;5122271;27;20463;-80
2023/06/01 06:05:29;;;;;;;39.65;20.13;;;11.00;99.90;;;;;;5110982;27;20523;-81
2023/06/01 06:07:55;;;;;;;45.55;19.65;;;11.00;99.90;;;;;;5109018;27;20032;-81
2023/06/01 06:10:21;;;;;;;31.52;18.50;;;11.00;99.90;;;;;;5121427;27;20038;-81
2023/06/01 06:12:47;;;;;;;38.95;17.63;;;11.00;99.90;;;;;;5112413;27;20084;-81
2023/06/01 06:15:12;;;;;;;36.42;18.67;;;11.00;99.90;;;;;;5118944;27;20426;-81
2023/06/01 06:17:38;;;;;;;32.38;19.00;;;11.00;99.90;;;;;;5109561;27;20019;-80
2023/06/01 06:20:07;;;;;;;33.30;18.02;;;11.00;99.90;;;;;;5103574;27;20035;-81
2023/06/01 06:22:33;;;;;;;34.45;16.23;;;11.10;99.90;;;;;;5114817;27;20035;-81
2023/06/01 06:24:58;;;;;;;34.38;18.48;;;11.10;99.90;;;;;;5112543;27;20027;-81
2023/06/01 06:27:24;;;;;;;31.13;16.48;;;11.10;99.90;;;;;;5119269;27;20042;-81
2023/06/01 06:29:50;;;;;;;34.53;17.35;;;11.10;99.90;;;;;;5114374;27;20038;-80
2023/06/01 06:32:15;;;;;;;32.10;17.33;;;11.10;99.90;;;;;;5118236;27;20023;-81
2023/06/01 06:34:41;;;;;;;45.05;19.67;;;11.10;99.90;;;;;;5098782;27;20020;-81
2023/06/01 06:37:06;;;;;;;26.10;15.85;;;11.20;99.90;;;;;;5113597;27;20173;-81
2023/06/01 06:39:33;;;;;;;26.55;15.60;;;11.20;99.90;;;;;;5117577;27;20468;-81
2023/06/01 06:42:01;;;;;;;31.45;16.95;;;11.20;99.90;;;;;;5112173;27;20026;-81
2023/06/01 06:44:26;;;;;;;32.13;18.58;;;11.20;99.90;;;;;;5113753;28;20028;-80
2023/06/01 06:46:52;;;;;;;40.35;18.23;;;11.30;99.90;;;;;;5106622;28;20127;-82
2023/06/01 06:49:18;;;;;;;26.30;17.33;;;11.30;99.90;;;;;;5121528;28;20027;-81
2023/06/01 06:51:44;;;;;;;38.80;18.63;;;11.30;99.90;;;;;;5116428;28;20087;-81
2023/06/01 06:54:09;;;;;;;29.20;17.25;;;11.40;99.90;;;;;;5114363;28;20026;-81
2023/06/01 06:56:35;;;;;;;33.38;15.57;;;11.40;99.90;;;;;;5116475;27;20031;-81
2023/06/01 06:59:01;;;;;;;29.33;15.45;;;11.50;99.90;;;;;;5120836;27;20031;-81
2023/06/01 07:01:26;;;;;;;32.28;18.10;;;11.50;99.90;;;;;;5102386;27;20115;-84
2023/06/01 07:03:52;;;;;;;29.95;17.80;;;11.60;99.90;;;;;;5122555;27;20033;-83
2023/06/01 07:06:18;;;;;;;34.30;17.52;;;11.60;99.90;;;;;;5101342;28;20023;-81
2023/06/01 07:08:44;;;;;;;30.65;16.95;;;11.60;99.90;;;;;;5119130;27;20557;-81
2023/06/01 07:11:12;;;;;;;27.88;15.35;;;11.60;99.90;;;;;;5114747;27;20030;-82
2023/06/01 07:13:38;;;;;;;37.75;18.05;;;11.70;99.90;;;;;;5103473;27;20027;-82
2023/06/01 07:16:05;;;;;;;33.85;18.02;;;11.80;99.90;;;;;;5118145;27;20034;-81
2023/06/01 07:18:30;;;;;;;56.35;17.48;;;11.80;99.90;;;;;;5116823;27;20096;-82
2023/06/01 07:20:57;;;;;;;36.20;17.52;;;11.80;99.90;;;;;;5114517;27;20473;-81
2023/06/01 07:23:23;;;;;;;42.67;18.73;;;11.90;99.90;;;;;;5114654;27;20479;-81
2023/06/01 07:25:48;;;;;;;34.88;16.52;;;12.00;99.90;;;;;;5115032;27;20054;-82
2023/06/01 07:28:15;;;;;;;30.02;16.60;;;12.00;99.90;;;;;;5118158;27;20445;-81
2023/06/01 07:30:41;;;;;;;32.47;17.83;;;12.10;99.90;;;;;;5116057;27;20032;-82
2023/06/01 07:33:07;;;;;;;40.72;18.33;;;12.20;99.90;;;;;;5096820;28;20479;-82
2023/06/01 07:35:35;;;;;;;32.67;16.42;;;12.30;99.90;;;;;;5125558;27;20357;-82
2023/06/01 07:38:03;;;;;;;29.85;16.58;;;12.40;99.90;;;;;;5124717;27;20038;-82
2023/06/01 07:40:30;;;;;;;32.38;16.27;;;12.50;99.90;;;;;;5119504;27;20114;-82
2023/06/01 07:42:55;;;;;;;33.05;16.73;;;12.60;99.90;;;;;;5105408;27;20501;-81
2023/06/01 07:45:21;;;;;;;34.45;16.55;;;12.70;99.90;;;;;;5124505;27;20019;-83
2023/06/01 07:47:47;;;;;;;29.70;15.50;;;12.70;99.90;;;;;;5123527;27;20075;-82
2023/06/01 07:50:13;;;;;;;25.65;16.17;;;12.80;99.90;;;;;;5120082;27;20388;-82
2023/06/01 07:52:38;;;;;;;51.22;18.10;;;12.90;99.90;;;;;;5120832;27;20023;-82
2023/06/01 07:55:04;;;;;;;31.00;16.88;;;13.00;99.90;;;;;;5123261;27;20106;-82
2023/06/01 07:57:30;;;;;;;24.30;15.30;;;13.00;99.90;;;;;;5116485;27;20031;-81
2023/06/01 07:59:56;;;;;;;27.58;15.25;;;13.10;99.90;;;;;;5113881;27;20038;-82
2023/06/01 08:02:22;;;;;;;35.47;17.65;;;13.20;99.90;;;;;;5116168;27;20031;-83
2023/06/01 08:04:48;;;;;;;44.67;14.82;;;13.30;99.90;;;;;;5108955;27;20027;-82
2023/06/01 08:07:16;;;;;;;32.80;14.18;;;13.40;99.90;;;;;;5117105;27;20087;-82
2023/06/01 08:09:43;;;;;;;24.30;14.73;;;13.50;99.90;;;;;;5111840;27;20099;-82
2023/06/01 08:12:11;;;;;;;36.13;16.77;;;13.50;99.90;;;;;;5102809;27;20055;-81
2023/06/01 08:14:37;;;;;;;35.22;15.05;;;13.50;99.90;;;;;;5123862;27;20090;-81
2023/06/01 08:17:03;;;;;;;23.67;13.38;;;13.50;99.90;;;;;;5116342;27;20028;-82
2023/06/01 08:19:29;;;;;;;34.25;15.45;;;13.50;99.90;;;;;;5106314;27;20488;-82
2023/06/01 08:21:55;;;;;;;28.40;15.13;;;13.40;99.90;;;;;;5117666;27;20027;-83
2023/06/01 08:24:24;;;;;;;33.85;16.20;;;13.40;99.90;;;;;;5117158;27;20065;-82
2023/06/01 08:26:54;;;;;;;67.50;16.88;;;13.40;99.90;;;;;;5117185;27;20096;-80
2023/06/01 08:29:20;;;;;;;34.67;15.63;;;13.30;99.90;;;;;;5116031;27;20019;-80
2023/06/01 08:31:45;;;;;;;32.35;17.35;;;13.30;99.90;;;;;;5113178;27;20413;-82
2023/06/01 08:34:11;;;;;;;36.30;16.38;;;13.30;99.90;;;;;;5093266;28;20606;-82
2023/06/01 08:36:37;;;;;;;37.35;17.75;;;13.30;99.90;;;;;;5096696;27;20433;-82
2023/06/01 08:39:23;;;;;;;34.42;15.80;;;13.30;99.90;;;;;;5091436;28;20031;-81
2023/06/01 08:42:03;;;;;;;30.40;14.95;;;13.40;99.90;;;;;;5113265;27;20020;-81
2023/06/01 08:44:35;;;;;;;31.02;16.42;;;13.50;99.90;;;;;;5110028;27;20038;-82
2023/06/01 08:47:02;;;;;;;30.02;16.70;;;13.50;99.90;;;;;;5114058;27;20027;-82
2023/06/01 08:49:33;;;;;;;31.70;17.25;;;13.60;99.90;;;;;;5120790;27;20025;-80
2023/06/01 08:52:13;;;;;;;32.53;15.68;;;13.60;99.90;;;;;;5107763;27;20030;-81
2023/06/01 08:54:39;;;;;;;32.30;16.25;;;13.60;99.90;;;;;;5109767;27;20096;-80
2023/06/01 08:57:09;;;;;;;27.63;14.55;;;13.60;99.90;;;;;;5110007;27;20020;-81
2023/06/01 08:59:35;;;;;;;32.22;16.30;;;13.60;99.90;;;;;;5103054;27;20107;-80
2023/06/01 09:02:02;;;;;;;35.85;14.73;;;13.60;99.90;;;;;;5106159;27;20022;-80
2023/06/01 09:04:30;;;;;;;25.48;13.90;;;13.70;99.90;;;;;;5108099;27;20032;-80
2023/06/01 09:06:56;;;;;;;31.00;14.63;;;13.70;99.90;;;;;;5111176;27;20561;-81
2023/06/01 09:09:22;;;;;;;28.30;14.00;;;13.70;99.90;;;;;;5095043;28;20110;-81
2023/06/01 09:11:47;;;;;;;27.05;14.35;;;13.70;99.90;;;;;;5113476;27;20024;-81
2023/06/01 09:14:23;;;;;;;29.75;14.18;;;13.90;99.90;;;;;;5112125;27;20156;-81
2023/06/01 09:16:50;;;;;;;26.75;13.48;;;13.90;99.90;;;;;;5102044;27;20004;-81
2023/06/01 09:19:18;;;;;;;30.10;14.82;;;14.10;99.90;;;;;;5112677;27;20036;-80
2023/06/01 09:21:57;;;;;;;26.73;13.07;;;14.10;99.90;;;;;;5123555;27;20503;-80
2023/06/01 09:24:23;;;;;;;38.72;15.77;;;14.10;99.90;;;;;;5109295;27;20036;-81
2023/06/01 09:26:49;;;;;;;34.80;14.13;;;14.30;99.90;;;;;;5118483;27;20052;-80
2023/06/01 09:29:16;;;;;;;35.17;13.98;;;14.40;99.90;;;;;;5119658;27;20046;-80
2023/06/01 09:31:48;;;;;;;33.47;14.98;;;14.50;99.90;;;;;;5114645;27;20035;-81
2023/06/01 09:34:18;;;;;;;33.33;13.85;;;14.40;99.90;;;;;;5120336;27;20019;-80
2023/06/01 09:36:53;;;;;;;25.10;12.77;;;14.50;99.90;;;;;;5112091;27;20692;-81
2023/06/01 09:39:22;;;;;;;29.33;13.48;;;14.50;99.90;;;;;;5106002;27;20019;-80
2023/06/01 09:41:54;;;;;;;32.80;15.50;;;14.60;99.90;;;;;;5098193;28;20119;-80
2023/06/01 09:44:29;;;;;;;28.88;14.15;;;14.70;99.90;;;;;;5108948;27;20031;-82
2023/06/01 09:46:57;;;;;;;;;;;14.80;99.90;;;;;;5101113;27;20024;-80
2023/06/01 09:49:24;;;;;;;35.85;14.30;;;14.70;99.90;;;;;;5105599;27;19912;-81
2023/06/01 09:51:50;;;;;;;28.58;14.85;;;14.80;99.90;;;;;;5095826;27;20027;-80
2023/06/01 09:54:27;;;;;;;32.75;14.75;;;14.90;99.90;;;;;;5100710;27;20029;-81
2023/06/01 09:56:55;;;;;;;29.52;13.48;;;15.00;99.90;;;;;;5110897;27;20027;-80
2023/06/01 09:59:22;;;;;;;28.88;13.73;;;15.00;99.90;;;;;;5114993;27;20023;-80
2023/06/01 10:01:51;;;;;;;28.15;14.68;;;15.10;99.90;;;;;;5112305;27;20076;-81
2023/06/01 10:04:22;;;;;;;34.50;14.73;;;15.20;99.90;;;;;;5111966;27;20450;-80
2023/06/01 10:06:51;;;;;;;32.30;14.20;;;15.20;99.90;;;;;;5119661;27;20096;-81
2023/06/01 10:09:19;;;;;;;28.30;13.23;;;15.20;99.90;;;;;;5111202;27;20024;-81
2023/06/01 10:11:46;;;;;;;25.42;12.48;;;15.20;99.90;;;;;;5122232;27;20075;-80
2023/06/01 10:14:12;;;;;;;21.67;11.73;;;15.30;99.90;;;;;;5115587;27;20035;-80
2023/06/01 10:16:40;;;;;;;27.55;12.27;;;15.40;99.90;;;;;;5119567;27;20434;-80
2023/06/01 10:19:07;;;;;;;24.27;13.25;;;15.40;99.90;;;;;;5110930;27;20392;-80
2023/06/01 10:21:33;;;;;;;25.27;11.75;;;15.50;99.90;;;;;;5117020;27;20034;-81
2023/06/01 10:23:59;;;;;;;30.92;13.80;;;15.50;99.90;;;;;;5110032;27;20053;-80
2023/06/01 10:26:27;;;;;;;32.13;14.20;;;15.60;99.90;;;;;;5111940;28;20043;-79
2023/06/01 10:28:55;;;;;;;23.40;13.02;;;15.70;99.90;;;;;;5113413;27;20496;-81
2023/06/01 10:31:32;;;;;;;25.30;13.02;;;15.80;99.90;;;;;;5118147;27;20028;-81
2023/06/01 10:33:58;;;;;;;27.95;12.77;;;15.60;99.90;;;;;;5109499;27;20041;-80
2023/06/01 10:36:53;;;;;;;25.40;12.77;;;15.60;99.90;;;;;;5106631;28;20425;-80
2023/06/01 10:39:25;;;;;;;31.92;13.23;;;15.60;99.90;;;;;;5113958;27;20430;-82
2023/06/01 10:41:53;;;;;;;31.40;15.55;;;15.60;99.90;;;;;;5108533;28;20043;-81
2023/06/01 10:44:38;;;;;;;28.27;14.80;;;15.60;99.90;;;;;;5108033;28;20046;-80
2023/06/01 10:47:04;;;;;;;27.92;14.70;;;15.80;99.90;;;;;;5111885;28;20480;-80
2023/06/01 10:49:51;;;;;;;30.25;15.60;;;15.80;99.90;;;;;;5111148;28;20114;-80
2023/06/01 10:52:33;;;;;;;25.85;14.57;;;16.00;99.90;;;;;;5104194;28;20062;-80
2023/06/01 10:55:10;;;;;;;35.08;14.40;;;16.10;99.90;;;;;;5110365;28;20051;-80
2023/06/01 10:57:37;;;;;;;35.30;14.35;;;16.10;99.90;;;;;;5095485;28;20028;-81
2023/06/01 11:00:22;;;;;;;23.77;12.82;;;16.10;99.90;;;;;;5102456;28;20477;-81
2023/06/01 11:03:00;;;;;;;24.27;14.63;;;16.20;99.90;;;;;;5108668;28;20020;-81
2023/06/01 11:05:48;;;;;;;31.90;16.48;;;16.40;99.90;;;;;;5115343;28;20072;-81
2023/06/01 11:08:17;;;;;;;24.70;15.32;;;16.40;99.90;;;;;;5113829;28;20051;-81
2023/06/01 11:10:55;;;;;;;31.17;18.55;;;16.50;99.90;;;;;;5116621;28;20190;-81
2023/06/01 11:13:29;;;;;;;34.20;21.33;;;16.60;99.90;;;;;;5106330;28;20038;-81
2023/06/01 11:16:10;;;;;;;34.00;20.08;;;16.70;99.90;;;;;;5118544;28;20116;-81
2023/06/01 11:19:00;;;;;;;35.47;22.13;;;16.60;99.90;;;;;;5112963;28;20480;-81
2023/06/01 11:21:29;;;;;;;36.75;21.95;;;16.60;99.90;;;;;;5110004;28;20023;-81
2023/06/01 11:23:59;;;;;;;39.05;22.52;;;16.60;99.90;;;;;;5118486;28;20015;-81
2023/06/01 11:26:35;;;;;;;34.10;22.08;;;16.60;99.90;;;;;;5114606;28;20043;-81
2023/06/01 11:29:21;;;;;;;41.47;22.58;;;16.70;99.90;;;;;;5114590;28;20485;-81
2023/06/01 11:31:58;;;;;;;38.72;21.30;;;16.70;99.90;;;;;;5106681;28;20024;-81
2023/06/01 11:34:45;;;;;;;35.65;20.60;;;16.70;99.90;;;;;;5116623;28;20030;-81
2023/06/01 11:37:17;;;;;;;28.77;17.67;;;16.70;99.90;;;;;;5108898;28;20119;-81
2023/06/01 11:39:47;;;;;;;33.58;18.63;;;16.70;99.90;;;;;;5101598;28;20027;-80
2023/06/01 11:42:25;;;;;;;29.33;16.92;;;16.70;99.90;;;;;;5101073;27;20032;-81
2023/06/01 11:44:58;;;;;;;28.70;17.98;;;16.70;99.90;;;;;;5108065;27;20032;-81
2023/06/01 11:47:28;;;;;;;30.08;16.42;;;16.80;99.90;;;;;;5098495;27;20039;-83
2023/06/01 11:49:55;;;;;;;27.88;16.83;;;16.80;99.90;;;;;;5105997;27;20039;-81
2023/06/01 11:52:21;;;;;;;27.30;15.45;;;17.00;99.90;;;;;;5108043;27;20024;-83
2023/06/01 11:54:48;;;;;;;28.65;16.27;;;17.10;99.90;;;;;;5119214;27;20035;-81
2023/06/01 11:57:14;;;;;;;28.65;16.08;;;17.10;99.90;;;;;;5121689;27;20030;-81
2023/06/01 11:59:41;;;;;;;31.33;15.52;;;17.10;99.90;;;;;;5118194;27;20030;-80
2023/06/01 12:02:20;;;;;;;30.65;13.88;;;17.20;99.90;;;;;;5103821;27;20115;-81
2023/06/01 12:04:59;;;;;;;24.60;12.55;;;17.10;99.90;;;;;;5118572;27;20072;-80
2023/06/01 12:07:26;;;;;;;22.45;12.18;;;17.10;99.90;;;;;;5109873;27;20092;-80
2023/06/01 12:09:53;;;;;;;31.77;12.25;;;17.10;99.90;;;;;;5098981;27;20031;-81
2023/06/01 12:12:24;;;;;;;20.45;10.82;;;17.20;99.90;;;;;;5096460;27;20015;-81
2023/06/01 12:14:51;;;;;;;23.30;10.25;;;17.20;99.90;;;;;;5109799;27;20055;-81
2023/06/01 12:17:17;;;;;;;19.50;10.38;;;17.40;99.90;;;;;;5113396;27;20463;-81
2023/06/01 12:19:47;;;;;;;16.77;9.60;;;17.40;99.90;;;;;;5121308;27;20399;-83
2023/06/01 12:22:15;;;;;;;24.40;9.18;;;17.40;99.90;;;;;;5115309;27;20065;-82
2023/06/01 12:24:41;;;;;;;14.55;8.50;;;17.40;99.90;;;;;;5110904;27;20072;-80
2023/06/01 12:27:15;;;;;;;22.50;9.15;;;17.40;99.90;;;;;;5113301;27;20035;-81
2023/06/01 12:29:43;;;;;;;17.80;8.45;;;17.50;99.90;;;;;;5094367;27;20046;-81
2023/06/01 12:32:10;;;;;;;18.13;8.40;;;17.60;99.90;;;;;;5116244;27;20098;-81
2023/06/01 12:34:37;;;;;;;14.90;7.63;;;17.70;99.90;;;;;;5119113;27;20022;-81
2023/06/01 12:37:12;;;;;;;14.98;7.95;;;17.80;99.90;;;;;;5108575;27;20111;-80
2023/06/01 12:39:39;;;;;;;;;;;17.80;99.90;;;;;;5114989;27;20035;-82